Time;durP1;ratioP1;P1;durP2;ratioP2;P2;SDS_P1;SDS_P2;PMS_P1;PMS_P2;Temp;Humidity;BMP_temperature;BMP_pressure;BME280_temperature;BME280_humidity;BME280_pressure;Samples;Min_cycle;Max_cycle;Signal;HPM_P1;HPM_P2
2021/10/09 00:01:57;;;;;;;;;9.00;7.75;;;;;22.12;45.72;102058.47;5036160;28;45618;-53
2021/10/09 00:04:23;;;;;;;;;9.00;7.25;;;;;22.12;45.82;102053.19;5036048;28;46259;-49
2021/10/09 00:06:48;;;;;;;;;10.00;7.00;;;;;22.11;45.70;102056.75;5036295;28;45233;-53
2021/10/09 00:09:14;;;;;;;;;5.75;5.25;;;;;22.09;45.75;102050.72;5036229;28;45568;-51
2021/10/09 00:11:39;;;;;;;;;7.75;5.25;;;;;22.11;45.81;102059.41;5036420;28;45450;-53
2021/10/09 00:14:06;;;;;;;;;9.75;8.50;;;;;22.11;45.47;102058.56;5036162;28;46139;-54
2021/10/09 00:16:32;;;;;;;;;7.00;5.75;;;;;22.11;45.64;102059.41;5035885;28;45415;-51
2021/10/09 00:18:58;;;;;;;;;5.75;5.75;;;;;22.10;45.73;102049.78;5036144;28;45383;-52
2021/10/09 00:21:23;;;;;;;;;8.25;7.00;;;;;22.09;45.68;102054.19;5036233;28;45375;-52
2021/10/09 00:23:48;;;;;;;;;8.75;6.00;;;;;22.09;45.85;102050.72;5035828;28;45383;-53
2021/10/09 00:26:15;;;;;;;;;9.25;6.75;;;;;22.09;45.68;102053.34;5035834;28;45423;-52
2021/10/09 00:28:40;;;;;;;;;11.00;7.75;;;;;22.08;45.58;102049.84;5035908;28;45186;-50
2021/10/09 00:31:06;;;;;;;;;8.50;7.50;;;;;22.07;45.79;102049.91;5036306;28;45519;-52
2021/10/09 00:33:31;;;;;;;;;7.25;5.75;;;;;22.06;45.79;102049.03;5035687;28;45571;-53
2021/10/09 00:35:56;;;;;;;;;8.25;7.00;;;;;22.08;45.70;102051.63;5035772;28;45319;-51
2021/10/09 00:38:22;;;;;;;;;6.25;6.25;;;;;22.07;45.70;102053.41;5035981;28;45372;-51
2021/10/09 00:40:48;;;;;;;;;8.25;6.50;;;;;22.05;45.83;102049.13;5035977;28;45592;-52
2021/10/09 00:43:13;;;;;;;;;8.00;8.00;;;;;22.07;45.88;102049.91;5035514;28;45501;-50
2021/10/09 00:45:38;;;;;;;;;6.00;5.25;;;;;22.05;45.88;102052.59;5039214;28;45294;-49
2021/10/09 00:48:04;;;;;;;;;10.25;8.25;;;;;22.05;46.04;102051.75;5039226;28;45268;-51
2021/10/09 00:50:29;;;;;;;;;7.25;5.25;;;;;22.05;45.71;102041.19;5039394;28;45364;-52
2021/10/09 00:52:57;;;;;;;;;7.75;7.75;;;;;22.03;45.90;102043.03;5039088;28;46121;-50
2021/10/09 00:55:25;;;;;;;;;7.50;7.50;;;;;22.04;45.78;102050.03;5039084;28;45330;-52
2021/10/09 00:57:53;;;;;;;;;5.75;5.00;;;;;22.04;45.66;102044.75;5039294;28;45295;-51
2021/10/09 01:00:18;;;;;;;;;5.75;5.75;;;;;22.04;45.50;102042.13;5039262;28;45238;-49
2021/10/09 01:02:45;;;;;;;;;8.25;7.00;;;;;22.03;45.83;102043.91;5038632;28;46126;-51
2021/10/09 01:05:10;;;;;;;;;11.50;8.50;;;;;22.03;45.83;102046.56;5039215;28;45342;-51
2021/10/09 01:07:36;;;;;;;;;6.25;6.25;;;;;22.00;45.80;102037.88;5039103;28;45341;-52
2021/10/09 01:10:03;;;;;;;;;7.00;5.75;;;;;22.02;45.81;102041.31;5039272;28;45576;-52
2021/10/09 01:12:28;;;;;;;;;7.50;6.50;;;;;22.02;45.82;102044.84;5038669;28;48248;-51
2021/10/09 01:14:54;;;;;;;;;8.75;6.25;;;;;22.01;45.87;102039.59;5038753;28;45396;-51
2021/10/09 01:17:19;;;;;;;;;7.00;6.00;;;;;22.00;45.87;102037.88;5038845;28;45225;-49
2021/10/09 01:19:45;;;;;;;;;7.25;5.75;;;;;22.01;45.95;102042.25;5038987;28;45337;-51
2021/10/09 01:22:11;;;;;;;;;9.00;7.25;;;;;22.00;45.95;102044.03;5038897;28;45235;-51
2021/10/09 01:24:38;;;;;;;;;6.00;6.00;;;;;22.00;45.85;102041.41;5038721;28;45242;-50
2021/10/09 01:27:03;;;;;;;;;8.25;8.00;;;;;22.00;45.89;102044.03;5038724;28;45372;-52
2021/10/09 01:29:29;;;;;;;;;8.00;7.75;;;;;22.00;45.83;102048.44;5038769;28;45658;-52
2021/10/09 01:31:55;;;;;;;;;8.50;7.00;;;;;21.99;45.91;102037.03;5038361;28;46550;-51
2021/10/09 01:34:22;;;;;;;;;7.25;5.00;;;;;21.99;45.79;102037.03;5038447;28;45361;-51
2021/10/09 01:36:47;;;;;;;;;7.00;7.00;;;;;21.99;45.78;102041.47;5038542;28;45294;-55
2021/10/09 01:39:15;;;;;;;;;6.50;6.50;;;;;21.98;45.78;102039.75;5020869;28;45726;-52
2021/10/09 01:41:46;;;;;;;;;9.25;7.75;;;;;21.98;45.73;102039.75;5020533;28;48044;-55
2021/10/09 01:44:12;;;;;;;;;8.00;6.75;;;;;21.98;46.02;102037.13;5038643;28;45344;-53
2021/10/09 01:46:37;;;;;;;;;5.25;5.25;;;;;21.98;45.91;102037.13;5038443;28;45332;-54
2021/10/09 01:49:04;;;;;;;;;5.50;5.50;;;;;21.98;45.76;102037.13;5038579;28;45342;-54
2021/10/09 01:51:30;;;;;;;;;5.75;5.75;;;;;21.97;45.68;102043.31;5038123;28;45320;-50
2021/10/09 01:53:56;;;;;;;;;8.25;6.00;;;;;21.96;45.85;102026.59;5038147;28;45868;-49
2021/10/09 01:56:22;;;;;;;;;6.25;5.75;;;;;21.97;45.89;102032.75;5037940;28;45409;-50
2021/10/09 01:58:47;;;;;;;;;8.00;8.00;;;;;21.96;45.88;102033.69;5038474;28;45640;-52
2021/10/09 02:01:12;;;;;;;;;6.25;6.25;;;;;21.96;45.55;102031.03;5038076;28;46066;-49
2021/10/09 02:03:37;;;;;;;;;7.25;7.25;;;;;21.96;45.73;102031.03;5037904;28;45789;-54
2021/10/09 02:06:03;;;;;;;;;7.50;6.50;;;;;21.92;45.66;102025.88;5038157;28;45750;-53
2021/10/09 02:08:29;;;;;;;;;8.25;8.25;;;;;21.94;45.86;102031.06;5038443;28;45350;-53
2021/10/09 02:11:03;;;;;;;;;6.50;6.50;;;;;21.93;45.85;102029.41;5037909;28;45500;-51
2021/10/09 02:13:44;;;;;;;;;8.50;5.25;;;;;21.95;45.64;102034.59;5037888;28;45898;-54
2021/10/09 02:27:06;;;;;;;;;6.00;6.00;;;;;21.93;45.78;102026.75;5037782;28;45431;-53
2021/10/09 02:29:31;;;;;;;;;6.00;6.00;;;;;21.92;45.79;102025.88;5037778;28;45329;-51
2021/10/09 02:31:57;;;;;;;;;6.00;6.00;;;;;21.92;45.85;102025.03;5037413;28;45436;-53
2021/10/09 02:34:23;;;;;;;;;9.00;7.75;;;;;21.92;45.97;102020.59;5037375;28;45427;-53
2021/10/09 02:36:48;;;;;;;;;6.00;6.00;;;;;21.91;45.74;102034.72;5037691;28;45313;-52
2021/10/09 02:39:14;;;;;;;;;7.75;5.50;;;;;21.92;45.84;102025.88;5036728;28;45320;-53
2021/10/09 02:41:39;;;;;;;;;6.25;6.25;;;;;21.90;45.75;102027.72;5037331;28;46394;-50
2021/10/09 02:44:05;;;;;;;;;7.25;6.50;;;;;21.92;45.58;102025.03;5037333;28;45241;-50
2021/10/09 02:46:31;;;;;;;;;8.25;6.50;;;;;21.91;45.60;102028.59;5037407;28;45310;-52
2021/10/09 02:48:56;;;;;;;;;10.00;8.00;;;;;21.90;46.05;102026.88;5037603;28;45535;-54
2021/10/09 02:51:22;;;;;;;;;6.25;6.00;;;;;21.90;45.71;102027.72;5037164;28;45811;-53
2021/10/09 02:53:47;;;;;;;;;6.25;6.25;;;;;21.91;45.73;102028.59;5037195;28;45402;-50
2021/10/09 02:56:12;;;;;;;;;6.75;6.75;;;;;21.90;45.87;102021.59;5037463;28;45351;-53
2021/10/09 02:58:38;;;;;;;;;7.00;7.00;;;;;21.89;45.85;102026.00;5037380;28;45591;-52
2021/10/09 03:01:03;;;;;;;;;6.75;6.00;;;;;21.89;45.56;102023.34;5036901;28;45602;-51
2021/10/09 03:03:28;;;;;;;;;6.00;6.00;;;;;21.89;45.88;102026.00;5019245;28;45346;-51
2021/10/09 03:05:54;;;;;;;;;7.75;6.75;;;;;21.89;45.46;102026.00;5036847;28;45419;-54
2021/10/09 03:08:19;;;;;;;;;8.00;7.00;;;;;21.88;45.67;102024.28;5036665;28;45544;-56
2021/10/09 03:10:44;;;;;;;;;5.50;5.50;;;;;21.88;45.54;102023.44;5037171;28;47025;-52
2021/10/09 03:13:10;;;;;;;;;6.50;6.25;;;;;21.88;45.79;102023.44;5036764;28;45329;-54
2021/10/09 03:15:35;;;;;;;;;9.50;7.00;;;;;21.90;45.73;102024.22;5019140;28;45335;-53
2021/10/09 03:18:01;;;;;;;;;7.00;6.00;;;;;21.88;45.88;102023.44;5037117;28;45425;-51
2021/10/09 03:20:26;;;;;;;;;9.75;8.25;;;;;21.87;45.87;102027.88;5036678;28;45438;-49
2021/10/09 03:22:51;;;;;;;;;7.00;7.00;;;;;21.86;45.81;102018.22;5036662;28;45404;-54
2021/10/09 03:25:18;;;;;;;;;7.25;7.25;;;;;21.87;45.62;102021.72;5037065;28;45312;-52
2021/10/09 03:27:44;;;;;;;;;8.00;8.00;;;;;21.87;45.62;102021.72;5037272;28;45480;-54
2021/10/09 03:30:10;;;;;;;;;9.50;8.25;;;;;21.86;45.89;102020.00;5036636;28;46739;-55
2021/10/09 03:32:35;;;;;;;;;8.00;7.00;;;;;21.85;45.71;102018.28;5036508;28;45311;-50
2021/10/09 03:35:01;;;;;;;;;8.00;7.25;;;;;21.84;45.79;102017.44;5036805;28;45334;-52
2021/10/09 03:37:27;;;;;;;;;7.50;7.50;;;;;21.86;45.54;102027.91;5036841;28;45630;-54
2021/10/09 03:39:54;;;;;;;;;9.25;7.25;;;;;21.85;45.68;102016.50;5036430;28;46129;-53
2021/10/09 03:42:24;;;;;;;;;8.25;7.25;;;;;21.84;45.95;102021.84;5036364;28;45376;-52
2021/10/09 03:45:04;;;;;;;;;8.00;7.00;;;;;21.85;45.56;102026.19;5036353;28;45221;-53
2021/10/09 03:50:05;;;;;;;;;8.00;6.75;;;;;21.85;45.44;102026.19;5036381;28;45424;-55
2021/10/09 03:55:14;;;;;;;;;6.25;6.25;;;;;21.84;45.45;102022.72;5036550;28;45238;-53
2021/10/09 03:57:39;;;;;;;;;7.00;7.00;;;;;21.83;45.78;102018.34;5036489;28;45210;-52
2021/10/09 04:00:07;;;;;;;;;6.00;6.00;;;;;21.84;45.82;102022.72;5036119;28;46577;-56
2021/10/09 04:02:33;;;;;;;;;6.25;6.25;;;;;21.82;45.50;102014.00;5036026;28;45816;-54
2021/10/09 04:04:58;;;;;;;;;6.75;6.75;;;;;21.82;45.54;102016.63;5036239;28;45372;-55
2021/10/09 04:07:25;;;;;;;;;6.75;6.75;;;;;21.82;45.73;102019.28;5036270;28;45514;-55
2021/10/09 04:09:50;;;;;;;;;7.00;7.00;;;;;21.82;45.64;102016.63;5036362;28;45509;-54
2021/10/09 04:12:15;;;;;;;;;8.25;7.00;;;;;21.81;45.79;102014.91;5036315;28;45341;-56
2021/10/09 04:14:41;;;;;;;;;6.00;5.75;;;;;21.82;45.60;102018.44;5018431;28;45271;-55
2021/10/09 04:17:06;;;;;;;;;7.75;7.75;;;;;21.83;45.52;102020.16;5036145;28;45583;-54
2021/10/09 04:19:32;;;;;;;;;8.25;7.00;;;;;21.80;45.66;102015.84;5039062;28;46218;-55
2021/10/09 04:21:57;;;;;;;;;9.00;9.00;;;;;21.81;45.50;102016.72;5039432;28;45351;-53
2021/10/09 04:24:23;;;;;;;;;8.75;8.75;;;;;21.79;45.49;102014.13;5039551;28;45395;-55
2021/10/09 04:26:48;;;;;;;;;6.75;6.75;;;;;21.82;45.61;102018.44;5040001;28;45221;-55
2021/10/09 04:29:14;;;;;;;;;6.75;6.75;;;;;21.80;45.54;102015.84;5039284;28;46091;-54
2021/10/09 04:31:39;;;;;;;;;8.00;7.00;;;;;21.80;45.47;102015.84;5039350;28;45420;-55
2021/10/09 04:34:04;;;;;;;;;6.50;6.00;;;;;21.81;45.44;102022.00;5039473;28;45455;-54
2021/10/09 04:36:30;;;;;;;;;5.75;5.75;;;;;21.80;45.82;102015.00;5039560;28;45317;-55
2021/10/09 04:38:55;;;;;;;;;7.00;6.75;;;;;21.80;45.61;102012.34;5039277;28;45265;-55
2021/10/09 04:41:20;;;;;;;;;11.50;8.75;;;;;21.80;45.71;102017.63;5021567;28;45374;-55
2021/10/09 04:43:46;;;;;;;;;7.75;7.75;;;;;21.80;45.68;102009.72;5039291;28;45296;-54
2021/10/09 04:46:11;;;;;;;;;8.75;8.25;;;;;21.79;45.49;102014.13;5039447;28;45520;-54
2021/10/09 04:48:37;;;;;;;;;9.25;8.25;;;;;21.78;45.71;102010.63;5039102;28;46258;-52
2021/10/09 04:51:03;;;;;;;;;7.00;7.00;;;;;21.78;45.79;102005.34;5039115;28;45461;-56
2021/10/09 04:53:28;;;;;;;;;7.25;7.25;;;;;21.79;45.53;102008.84;5039388;28;45363;-52
2021/10/09 04:55:54;;;;;;;;;8.00;7.75;;;;;21.78;45.62;102009.75;5039389;28;45349;-54
2021/10/09 04:58:19;;;;;;;;;7.00;7.00;;;;;21.77;45.81;102006.28;5021347;28;46936;-55
2021/10/09 05:00:44;;;;;;;;;5.00;5.00;;;;;21.78;45.25;102004.47;5038974;28;45456;-53
2021/10/09 05:03:10;;;;;;;;;10.75;7.75;;;;;21.77;45.08;102000.16;5039055;28;45317;-53
2021/10/09 05:05:35;;;;;;;;;9.00;8.00;;;;;21.76;45.58;101998.44;5039087;28;45638;-55
2021/10/09 05:08:00;;;;;;;;;8.00;8.00;;;;;21.76;45.68;101999.28;5038756;28;46343;-55
2021/10/09 05:10:28;;;;;;;;;7.25;7.00;;;;;21.76;45.47;102007.19;5038817;28;45388;-53
2021/10/09 05:12:54;;;;;;;;;12.25;9.00;;;;;21.76;45.23;102004.56;5039357;28;45293;-55
2021/10/09 05:15:19;;;;;;;;;8.25;7.50;;;;;21.76;45.51;102003.72;5039524;28;45462;-54
2021/10/09 05:17:44;;;;;;;;;7.00;7.00;;;;;21.76;45.75;102003.72;5038749;28;46721;-57
2021/10/09 05:20:10;;;;;;;;;9.75;9.75;;;;;21.76;45.40;102001.06;5038630;28;45311;-51
2021/10/09 05:22:36;;;;;;;;;11.75;9.25;;;;;21.74;45.29;102006.41;5038626;28;45362;-56
2021/10/09 05:25:02;;;;;;;;;7.25;7.25;;;;;21.74;45.48;102001.13;5038855;28;45317;-55
2021/10/09 05:27:28;;;;;;;;;10.50;7.75;;;;;21.74;45.28;102005.56;5038575;28;45736;-54
2021/10/09 05:29:54;;;;;;;;;19.25;17.25;;;;;21.73;45.09;102003.84;5038116;28;45405;-54
2021/10/09 05:32:24;;;;;;;;;13.25;13.25;;;;;21.71;45.06;102003.03;5038530;28;45384;-53
2021/10/09 05:34:49;;;;;;;;;12.00;12.00;;;;;21.68;45.27;102011.06;5038753;28;45406;-54
2021/10/09 05:37:15;;;;;;;;;12.00;9.00;;;;;21.66;45.04;102007.66;5038308;28;46357;-54
2021/10/09 05:39:40;;;;;;;;;12.75;10.25;;;;;21.64;45.31;102009.50;5038276;28;45439;-53
2021/10/09 05:42:06;;;;;;;;;10.75;9.25;;;;;21.61;45.52;102006.06;5038315;28;45356;-53
2021/10/09 05:44:31;;;;;;;;;11.25;11.25;;;;;21.60;45.37;102004.34;5038561;28;45317;-56
2021/10/09 05:46:56;;;;;;;;;10.00;10.00;;;;;21.58;45.17;102011.41;5038112;28;45431;-54
2021/10/09 05:49:22;;;;;;;;;13.00;12.25;;;;;21.57;45.17;102009.69;5020548;28;45532;-54
2021/10/09 05:51:59;;;;;;;;;11.50;10.25;;;;;21.56;45.28;102013.25;5038032;28;45330;-54
2021/10/09 05:54:30;;;;;;;;;14.75;12.50;;;;;21.54;45.20;102020.41;5038448;28;45455;-53
2021/10/09 05:59:37;;;;;;;;;11.75;10.75;;;;;21.52;45.10;102027.50;5038286;28;45295;-55
2021/10/09 06:43:23;;;;;;;;;11.50;10.50;;;;;21.35;45.00;102070.38;5036399;28;45837;-54
2021/10/09 07:01:32;;;;;;;;;15.50;12.50;;;;;21.30;45.08;102086.41;5036979;28;45302;-54
2021/10/09 07:03:58;;;;;;;;;12.50;12.50;;;;;21.30;45.21;102086.41;5037252;28;45392;-55
2021/10/09 07:06:23;;;;;;;;;15.25;13.75;;;;;21.31;44.86;102093.38;5037133;28;45343;-55
2021/10/09 07:08:48;;;;;;;;;12.25;11.00;;;;;21.30;44.73;102089.03;5037133;28;45596;-53
2021/10/09 07:11:15;;;;;;;;;12.00;11.00;;;;;21.30;45.28;102086.41;5018935;28;45572;-55
2021/10/09 07:13:41;;;;;;;;;10.00;9.50;;;;;21.27;45.08;102097.06;5036943;28;46007;-54
2021/10/09 07:16:07;;;;;;;;;15.00;14.50;;;;;21.26;45.03;102095.31;5036997;28;45408;-55
2021/10/09 07:18:32;;;;;;;;;12.50;11.75;;;;;21.26;45.16;102100.59;5037063;28;45487;-54
2021/10/09 07:20:58;;;;;;;;;13.50;12.50;;;;;21.27;44.97;102099.69;5019035;28;47878;-55
2021/10/09 07:23:23;;;;;;;;;16.25;14.75;;;;;21.26;44.76;102102.41;5036441;28;45325;-55
2021/10/09 07:25:48;;;;;;;;;11.50;11.50;;;;;21.27;45.01;102104.13;5036862;28;45340;-54
2021/10/09 07:28:14;;;;;;;;;15.50;13.25;;;;;21.25;44.83;102101.53;5037007;28;45459;-55
2021/10/09 07:30:39;;;;;;;;;13.00;12.75;;;;;21.25;44.52;102103.31;5036610;28;45329;-55
2021/10/09 07:33:04;;;;;;;;;17.50;14.75;;;;;21.24;45.16;102106.88;5036598;28;45954;-56
2021/10/09 07:35:30;;;;;;;;;16.50;13.75;;;;;21.29;44.73;102111.03;5037118;28;45451;-54
2021/10/09 07:37:55;;;;;;;;;14.75;14.00;;;;;21.28;44.56;102114.59;5036887;28;45337;-58
2021/10/09 07:40:20;;;;;;;;;13.25;12.75;;;;;21.29;44.68;102115.44;5036520;28;45410;-54
2021/10/09 07:42:47;;;;;;;;;14.75;13.00;;;;;21.28;44.75;102111.97;5018587;28;45354;-55
2021/10/09 07:45:12;;;;;;;;;15.25;14.00;;;;;21.28;44.48;102117.22;5036714;28;45281;-55
2021/10/09 07:47:37;;;;;;;;;15.75;13.25;;;;;21.28;44.63;102119.88;5036707;28;45524;-55
2021/10/09 07:50:04;;;;;;;;;19.50;17.50;;;;;21.29;44.93;102118.94;5036418;28;46733;-54
2021/10/09 07:52:30;;;;;;;;;15.75;12.00;;;;;21.28;44.58;102117.22;5036185;28;45262;-53
2021/10/09 07:54:55;;;;;;;;;15.00;13.25;;;;;21.28;44.68;102122.50;5036557;28;45341;-55
2021/10/09 07:57:20;;;;;;;;;15.75;13.00;;;;;21.27;44.61;102115.50;5036623;28;45336;-54
2021/10/09 07:59:46;;;;;;;;;13.25;13.25;;;;;21.28;45.01;102127.78;5036249;28;45416;-54
2021/10/09 08:02:12;;;;;;;;;15.50;12.25;;;;;21.27;45.11;102133.97;5036053;28;45363;-53
2021/10/09 08:04:53;;;;;;;;;14.75;13.50;;;;;21.28;44.76;102140.09;5029630;28;45415;-56
2021/10/09 08:07:19;;;;;;;;;14.00;13.75;;;;;21.30;44.93;102141.78;5013118;28;45571;-56
2021/10/09 08:09:44;;;;;;;;;16.00;14.75;;;;;21.31;44.96;102142.63;5012699;28;45333;-55
2021/10/09 08:12:09;;;;;;;;;14.25;13.25;;;;;21.29;44.68;102125.97;5013291;28;45277;-55
2021/10/09 08:14:35;;;;;;;;;13.75;13.50;;;;;21.30;44.69;102144.41;5012845;28;45529;-56
2021/10/09 08:17:00;;;;;;;;;19.00;14.00;;;;;21.30;44.49;102144.41;5028424;28;45593;-56
2021/10/09 08:19:26;;;;;;;;;17.50;14.25;;;;;21.30;44.83;102139.13;5013094;28;45210;-56
2021/10/09 08:21:52;;;;;;;;;15.00;14.00;;;;;21.30;44.52;102144.41;5013065;28;45217;-56
2021/10/09 08:35:35;;;;;;;;;18.25;15.50;;;;;21.31;44.52;102146.13;5048775;28;45504;-55
2021/10/09 08:40:45;;;;;;;;;17.75;15.50;;;;;21.35;44.54;102135.44;5024382;28;45218;-55
2021/10/09 08:43:11;;;;;;;;;18.25;16.75;;;;;21.34;44.32;102125.81;5012796;28;45240;-56
2021/10/09 08:45:36;;;;;;;;;13.50;13.50;;;;;21.35;44.54;102127.53;5012463;28;45989;-55
2021/10/09 08:48:02;;;;;;;;;15.75;14.25;;;;;21.36;44.52;102126.63;5028205;28;45278;-56
2021/10/09 08:50:27;;;;;;;;;16.00;15.50;;;;;21.37;44.52;102125.69;5012676;28;45234;-56
2021/10/09 08:53:08;;;;;;;;;13.75;13.50;;;;;21.40;44.49;102122.94;5012688;28;45197;-56
2021/10/09 08:55:37;;;;;;;;;17.75;15.50;;;;;21.39;44.32;102126.50;5012399;28;47198;-53
2021/10/09 08:58:06;;;;;;;;;16.50;15.25;;;;;21.40;44.45;102131.72;5011176;28;45407;-55
2021/10/09 09:01:05;;;;;;;;;14.50;13.50;;;;;21.39;44.32;102124.72;5012697;28;45455;-55
2021/10/09 09:04:02;;;;;;;;;17.25;16.00;;;;;21.41;44.50;102129.94;5021133;28;45675;-54
2021/10/09 09:25:57;;;;;;;;;16.50;14.50;;;;;21.39;44.32;102127.34;5018947;28;45319;-54
2021/10/09 09:33:41;;;;;;;;;14.75;14.50;;;;;21.41;44.43;102127.31;5018473;28;45456;-54
2021/10/09 09:36:11;;;;;;;;;12.50;12.50;;;;;21.41;44.13;102122.88;5018980;28;45334;-55
2021/10/09 09:41:23;;;;;;;;;16.00;15.00;;;;;21.42;44.08;102116.69;5018248;28;45193;-55
2021/10/09 09:43:53;;;;;;;;;16.25;16.25;;;;;21.44;44.43;102119.28;5018352;28;45224;-55
2021/10/09 09:46:23;;;;;;;;;19.00;16.50;;;;;21.45;43.83;102120.97;5018584;28;45393;-55
2021/10/09 09:48:50;;;;;;;;;17.25;17.00;;;;;21.45;44.28;102108.66;5018108;28;46228;-55
2021/10/09 09:51:19;;;;;;;;;19.00;16.25;;;;;21.46;44.39;102107.75;5018182;28;45929;-53
2021/10/09 09:53:46;;;;;;;;;16.50;16.50;;;;;21.47;44.26;102111.22;5018409;28;45416;-55
2021/10/09 09:56:13;;;;;;;;;16.50;14.25;;;;;21.47;44.14;102111.22;5018238;28;45375;-55
2021/10/09 09:58:42;;;;;;;;;19.25;18.75;;;;;21.44;43.82;102103.47;5018058;28;46504;-55
2021/10/09 10:01:10;;;;;;;;;12.25;12.25;;;;;21.47;44.33;102100.69;5018291;28;45249;-55
2021/10/09 10:03:36;;;;;;;;;15.25;15.00;;;;;21.47;44.19;102098.91;5018124;28;45254;-55
2021/10/09 10:06:03;;;;;;;;;17.75;15.75;;;;;21.49;44.01;102100.66;5016953;28;45313;-55
2021/10/09 10:08:29;;;;;;;;;19.00;17.50;;;;;21.48;44.20;102091.84;5017837;28;46619;-54
2021/10/09 10:10:56;;;;;;;;;16.75;16.00;;;;;21.48;43.97;102099.78;4999930;28;45507;-55
2021/10/09 10:13:28;;;;;;;;;15.50;15.00;;;;;21.49;44.31;102095.38;5017891;28;45483;-55
2021/10/09 10:15:55;;;;;;;;;17.75;14.75;;;;;21.49;44.04;102090.94;5018009;28;45314;-54
2021/10/09 10:18:45;;;;;;;;;20.25;18.00;;;;;21.48;43.80;102089.22;5017658;28;45757;-55
2021/10/09 10:21:15;;;;;;;;;15.50;15.50;;;;;21.48;44.31;102086.56;5017866;28;45288;-55
2021/10/09 10:23:42;;;;;;;;;19.50;16.50;;;;;21.49;44.18;102093.56;5017751;28;45278;-55
2021/10/09 10:26:20;;;;;;;;;15.75;14.75;;;;;21.50;44.18;102087.38;5017488;28;45440;-55
2021/10/09 10:28:46;;;;;;;;;17.75;16.75;;;;;21.49;43.86;102090.94;5017497;28;45451;-55
2021/10/09 10:31:11;;;;;;;;;20.75;17.75;;;;;21.49;43.98;102085.66;5017574;28;45341;-56
2021/10/09 10:33:39;;;;;;;;;14.75;14.75;;;;;21.51;44.42;102091.75;5018049;28;45403;-55
2021/10/09 10:36:12;;;;;;;;;16.00;15.50;;;;;21.53;43.91;102095.19;5017950;28;45625;-55
2021/10/09 10:38:48;;;;;;;;;19.75;17.25;;;;;21.53;44.08;102092.53;5017636;28;46060;-55
2021/10/09 10:41:18;;;;;;;;;17.00;17.00;;;;;21.52;44.31;102093.47;5017242;28;45196;-55
2021/10/09 10:43:47;;;;;;;;;16.50;16.50;;;;;21.53;43.77;102087.28;5017420;28;45447;-55
2021/10/09 10:46:22;;;;;;;;;18.25;18.25;;;;;21.54;44.09;102088.13;5017640;28;45508;-55
2021/10/09 10:49:15;;;;;;;;;15.00;15.00;;;;;21.53;44.08;102086.38;5017016;28;46364;-55
2021/10/09 10:51:43;;;;;;;;;17.75;16.25;;;;;21.54;43.78;102085.47;5017232;28;45447;-55
2021/10/09 10:56:57;;;;;;;;;16.50;15.25;;;;;21.52;43.89;102085.56;5017834;28;45447;-55
2021/10/09 10:59:49;;;;;;;;;16.50;14.25;;;;;21.53;44.10;102082.00;5016985;28;47369;-56
2021/10/09 11:02:28;;;;;;;;;17.50;15.00;;;;;21.53;43.64;102082.00;5017120;28;45989;-55
2021/10/09 11:04:53;;;;;;;;;23.50;18.50;;;;;21.53;43.68;102076.72;5017125;28;45360;-55
2021/10/09 11:07:23;;;;;;;;;15.25;15.25;;;;;21.54;43.82;102083.72;5017175;28;45467;-55
2021/10/09 11:09:50;;;;;;;;;16.50;15.00;;;;;21.54;43.67;102078.44;5016962;28;46296;-55
2021/10/09 11:12:25;;;;;;;;;16.50;16.50;;;;;21.54;43.54;102078.44;5016910;28;45470;-55
2021/10/09 11:15:01;;;;;;;;;16.00;15.25;;;;;21.54;43.64;102073.16;5016742;28;45504;-55
2021/10/09 11:17:35;;;;;;;;;19.50;19.25;;;;;21.55;43.29;102071.38;5016958;28;45428;-55
2021/10/09 11:20:02;;;;;;;;;17.75;16.50;;;;;21.53;43.47;102076.72;5016687;28;46595;-55
2021/10/09 11:22:43;;;;;;;;;19.50;14.75;;;;;21.54;43.26;102075.81;5016958;28;45447;-55
2021/10/09 11:25:19;;;;;;;;;17.50;16.75;;;;;21.54;43.37;102065.25;5017180;28;45313;-55
2021/10/09 11:27:44;;;;;;;;;17.50;17.50;;;;;21.51;43.28;102068.00;5016801;28;45503;-55
2021/10/09 11:30:11;;;;;;;;;20.75;18.75;;;;;21.54;43.20;102064.38;5016842;28;46223;-55
2021/10/09 11:32:40;;;;;;;;;18.75;17.50;;;;;21.53;43.46;102070.56;5016561;28;45987;-55
2021/10/09 11:35:08;;;;;;;;;18.50;16.25;;;;;21.53;43.42;102079.34;5016795;28;45394;-55
2021/10/09 11:37:34;;;;;;;;;17.75;15.75;;;;;21.53;43.14;102071.44;5016405;28;45166;-55
2021/10/09 11:40:03;;;;;;;;;18.75;17.25;;;;;21.54;43.11;102078.44;5016313;28;46408;-55
2021/10/09 11:42:31;;;;;;;;;16.75;15.50;;;;;21.54;42.71;102067.88;5016353;28;45899;-55
2021/10/09 11:45:08;;;;;;;;;18.25;16.25;;;;;21.53;42.92;102068.81;5015172;28;45238;-55
2021/10/09 11:56:06;;;;;;;;;17.75;14.75;;;;;21.54;42.95;102059.97;5016491;28;45237;-55
2021/10/09 11:58:31;;;;;;;;;15.75;15.50;;;;;21.55;42.94;102055.53;5016272;28;45262;-55
2021/10/09 12:00:57;;;;;;;;;19.00;14.25;;;;;21.55;42.84;102052.91;5016053;28;46420;-55
2021/10/09 12:03:26;;;;;;;;;19.25;17.50;;;;;21.54;42.77;102045.91;5015882;28;45747;-55
2021/10/09 12:05:54;;;;;;;;;20.00;16.25;;;;;21.55;42.81;102052.91;5016349;28;45398;-55
2021/10/09 12:08:31;;;;;;;;;14.50;14.50;;;;;21.56;43.09;102049.34;5016496;28;45345;-55
2021/10/09 12:11:11;;;;;;;;;16.25;13.75;;;;;21.54;42.95;102054.69;5015998;28;47172;-56
2021/10/09 12:14:02;;;;;;;;;18.75;17.00;;;;;21.55;42.81;102048.47;5016043;28;45947;-55
2021/10/09 12:16:35;;;;;;;;;16.75;16.75;;;;;21.57;42.56;102048.44;5016130;28;45318;-56
2021/10/09 12:19:03;;;;;;;;;20.25;19.25;;;;;21.56;42.72;102047.56;5016279;28;45499;-55
2021/10/09 12:21:38;;;;;;;;;18.50;17.25;;;;;21.58;42.87;102047.50;5015847;28;47753;-54
2021/10/09 12:24:18;;;;;;;;;20.50;20.25;;;;;21.58;42.86;102044.88;5015877;28;45796;-55
2021/10/09 12:26:58;;;;;;;;;18.25;18.25;;;;;21.57;42.81;102041.34;5015163;28;45407;-55
2021/10/09 12:29:24;;;;;;;;;18.75;17.00;;;;;21.57;42.79;102044.00;5016215;28;45192;-56
2021/10/09 12:31:49;;;;;;;;;15.50;14.75;;;;;21.57;42.87;102036.09;5015803;28;46744;-56
2021/10/09 12:34:34;;;;;;;;;19.25;17.25;;;;;21.57;42.76;102030.81;4998302;28;45647;-56
2021/10/09 12:37:24;;;;;;;;;16.25;16.25;;;;;21.58;42.29;102029.03;4998082;28;45348;-56
2021/10/09 12:40:07;;;;;;;;;20.00;19.25;;;;;21.58;42.66;102024.63;5016134;28;45463;-55
2021/10/09 12:42:32;;;;;;;;;17.00;16.25;;;;;21.57;42.76;102025.53;5015578;28;46165;-55
2021/10/09 12:44:58;;;;;;;;;16.50;16.50;;;;;21.57;42.76;102024.69;5015647;28;45447;-56
2021/10/09 12:47:23;;;;;;;;;18.25;18.25;;;;;21.59;42.51;102021.09;5015750;28;45597;-56
2021/10/09 12:49:48;;;;;;;;;14.75;14.00;;;;;21.60;42.85;102019.31;5016689;28;45498;-55
2021/10/09 12:52:14;;;;;;;;;19.50;17.75;;;;;21.59;42.53;102023.72;5019149;28;53342;-55
2021/10/09 12:54:39;;;;;;;;;21.50;17.75;;;;;21.59;42.59;102023.72;5018956;28;45350;-56
2021/10/09 12:57:09;;;;;;;;;20.25;18.00;;;;;21.59;42.18;102018.44;5001282;28;45490;-56
2021/10/09 12:59:35;;;;;;;;;18.25;18.25;;;;;21.60;42.33;102024.59;5019394;28;45511;-56
2021/10/09 13:02:02;;;;;;;;;18.00;15.75;;;;;21.58;42.53;102021.97;5018864;28;45372;-55
2021/10/09 13:04:28;;;;;;;;;16.50;16.50;;;;;21.59;42.53;102015.81;5018949;28;45968;-56
2021/10/09 13:06:53;;;;;;;;;20.25;17.50;;;;;21.57;42.40;102009.69;5001058;28;45472;-55
2021/10/09 13:09:18;;;;;;;;;13.75;12.50;;;;;21.60;42.44;102016.69;5018950;28;45416;-55
2021/10/09 13:11:55;;;;;;;;;18.25;15.25;;;;;21.58;41.87;102016.69;5018955;28;46279;-55
2021/10/09 13:14:20;;;;;;;;;17.50;17.25;;;;;21.58;42.25;102007.94;5018947;28;45726;-55
2021/10/09 13:16:47;;;;;;;;;20.00;17.75;;;;;21.58;41.90;102013.22;5019280;28;45430;-55
2021/10/09 13:19:12;;;;;;;;;21.75;21.75;;;;;21.56;42.16;102007.97;5019045;28;45571;-57
2021/10/09 13:21:38;;;;;;;;;15.75;15.25;;;;;21.58;42.04;102005.31;5018520;28;45465;-54
2021/10/09 13:24:04;;;;;;;;;22.00;16.75;;;;;21.57;42.27;102001.78;5018595;28;45422;-56
2021/10/09 13:26:31;;;;;;;;;16.25;15.75;;;;;21.58;42.35;102010.56;5018685;28;45283;-56
2021/10/09 13:28:57;;;;;;;;;16.00;15.75;;;;;21.58;42.17;102005.31;5018986;28;45321;-56